Time;durP1;ratioP1;P1;durP2;ratioP2;P2;SDS_P1;SDS_P2;PMS_P1;PMS_P2;Temp;Humidity;BMP_temperature;BMP_pressure;BME280_temperature;BME280_humidity;BME280_pressure;Samples;Min_cycle;Max_cycle;Signal;HPM_P1;HPM_P2
2023/05/20 00:00:00;;;;;;;34.40;17.70;;;;;;;10.14;100.00;99936.93;271684;1269;22635;-90
2023/05/20 00:06:02;;;;;;;33.30;17.30;;;;;;;10.14;100.00;99938.73;270690;1266;22581;-89
2023/05/20 00:12:04;;;;;;;32.80;18.10;;;;;;;10.15;100.00;99934.53;272625;1266;22673;-88
2023/05/20 00:18:05;;;;;;;30.60;16.80;;;;;;;10.15;100.00;99926.08;273232;1266;22169;-89
2023/05/20 00:24:06;;;;;;;30.90;16.50;;;;;;;10.18;100.00;99931.63;272484;1266;22508;-88
2023/05/20 00:30:08;;;;;;;31.00;17.00;;;;;;;10.19;100.00;99925.71;271023;1267;24290;-88
2023/05/20 00:36:10;;;;;;;30.30;16.60;;;;;;;10.17;100.00;99926.30;271634;1266;25725;-89
2023/05/20 00:42:27;;;;;;;30.80;17.60;;;;;;;10.15;100.00;99928.75;271876;1267;25085;-91
2023/05/20 00:48:39;;;;;;;29.20;16.20;;;;;;;10.14;100.00;99914.97;272000;1265;22574;-88
2023/05/20 00:54:40;;;;;;;29.50;15.90;;;;;;;10.15;100.00;99902.55;271182;1266;22551;-89
2023/05/20 01:00:43;;;;;;;28.00;14.50;;;;;;;10.16;100.00;99898.75;272327;1266;22407;-88
2023/05/20 01:06:45;;;;;;;23.70;14.30;;;;;;;10.18;100.00;99900.38;272650;1266;22365;-88
2023/05/20 01:12:53;;;;;;;26.60;15.50;;;;;;;10.20;100.00;99898.61;272453;1266;22543;-90
2023/05/20 01:18:56;;;;;;;24.90;15.30;;;;;;;10.19;100.00;99897.44;274103;1269;22366;-89
2023/05/20 01:24:58;;;;;;;28.40;14.60;;;;;;;10.19;100.00;99892.81;272192;1266;22264;-89
2023/05/20 01:31:01;;;;;;;32.00;16.90;;;;;;;10.19;100.00;99884.79;273634;1266;24080;-89
2023/05/20 01:37:04;;;;;;;35.70;18.80;;;;;;;10.19;100.00;99882.03;273776;1272;22251;-88
2023/05/20 01:43:05;;;;;;;35.00;19.90;;;;;;;10.18;100.00;99879.50;273934;1266;22982;-88
2023/05/20 01:49:07;;;;;;;38.30;19.90;;;;;;;10.20;100.00;99880.55;273055;1266;22555;-88
2023/05/20 01:55:08;;;;;;;41.50;21.60;;;;;;;10.19;100.00;99881.17;273375;1267;22652;-89
2023/05/20 02:01:10;;;;;;;48.30;23.60;;;;;;;10.19;100.00;99886.10;273828;1267;22443;-88
2023/05/20 02:07:12;;;;;;;44.10;24.20;;;;;;;10.19;100.00;99892.89;273422;1266;22534;-89
2023/05/20 02:13:38;;;;;;;49.00;24.40;;;;;;;10.19;100.00;99884.67;273876;1269;22337;-89
2023/05/20 02:19:40;;;;;;;43.20;22.80;;;;;;;10.18;100.00;99884.12;272555;1273;27692;-89
2023/05/20 02:25:42;;;;;;;47.70;24.60;;;;;;;10.19;100.00;99881.09;273010;1267;27636;-88
2023/05/20 02:31:46;;;;;;;52.50;24.50;;;;;;;10.19;100.00;99887.66;271400;1267;22360;-89
2023/05/20 02:37:48;;;;;;;48.80;25.30;;;;;;;10.20;100.00;99890.95;273473;1272;22300;-89
2023/05/20 02:44:42;;;;;;;53.10;26.80;;;;;;;10.19;100.00;99891.88;273739;1269;22376;-89
2023/05/20 02:58:38;;;;;;;48.10;23.20;;;;;;;10.22;100.00;99895.80;274210;1266;23557;-89
2023/05/20 03:04:40;;;;;;;47.90;23.80;;;;;;;10.24;100.00;99893.17;273833;1266;22926;-88
2023/05/20 03:10:42;;;;;;;49.40;23.90;;;;;;;10.25;100.00;99893.98;273879;1266;22237;-89
2023/05/20 03:16:43;;;;;;;43.70;22.50;;;;;;;10.27;100.00;99898.10;273532;1267;22433;-89
2023/05/20 03:23:35;;;;;;;49.20;25.60;;;;;;;10.27;100.00;99902.64;273544;1269;22391;-89
2023/05/20 03:29:40;;;;;;;49.40;24.40;;;;;;;10.27;100.00;99902.41;272281;1266;23008;-89
2023/05/20 03:35:44;;;;;;;48.20;23.60;;;;;;;10.27;100.00;99896.71;273994;1266;22327;-89
2023/05/20 03:41:45;;;;;;;48.10;24.70;;;;;;;10.28;100.00;99896.50;273838;1269;22438;-89
2023/05/20 03:47:47;;;;;;;52.00;24.50;;;;;;;10.29;100.00;99893.80;273076;1266;22196;-89
2023/05/20 03:53:51;;;;;;;55.00;24.90;;;;;;;10.31;100.00;99893.83;273853;1266;22278;-89
2023/05/20 03:59:53;;;;;;;53.50;23.90;;;;;;;10.32;100.00;99895.50;273367;1266;22722;-89
2023/05/20 04:05:54;;;;;;;63.30;28.70;;;;;;;10.34;100.00;99899.77;273253;1272;26448;-89
2023/05/20 04:11:56;;;;;;;60.60;26.50;;;;;;;10.38;100.00;99903.48;271804;1266;22192;-89
2023/05/20 04:18:00;;;;;;;60.70;25.70;;;;;;;10.42;100.00;99902.27;272991;1267;22440;-89
2023/05/20 04:24:02;;;;;;;59.00;26.10;;;;;;;10.47;100.00;99898.88;272664;1260;23414;-88
2023/05/20 04:30:05;;;;;;;60.30;27.40;;;;;;;10.51;100.00;99901.23;271744;1270;22576;-88
2023/05/20 04:44:19;;;;;;;51.00;24.50;;;;;;;10.57;100.00;99900.93;271652;1269;23831;-89
2023/05/20 04:50:21;;;;;;;44.10;22.80;;;;;;;10.61;100.00;99901.98;271949;1267;22874;-89
2023/05/20 04:56:22;;;;;;;49.70;25.40;;;;;;;10.69;100.00;99901.16;272170;1266;22597;-89
2023/05/20 05:02:24;;;;;;;53.50;24.90;;;;;;;10.75;100.00;99904.59;270670;1266;23372;-90
2023/05/20 05:08:25;;;;;;;48.20;23.40;;;;;;;10.81;100.00;99910.60;273464;1270;22408;-88
2023/05/20 05:14:27;;;;;;;48.80;24.90;;;;;;;10.86;100.00;99913.80;274001;1267;22347;-89
2023/05/20 05:20:28;;;;;;;45.40;23.80;;;;;;;10.93;100.00;99911.21;273477;1272;22557;-89
2023/05/20 05:26:29;;;;;;;43.30;24.60;;;;;;;10.99;100.00;99913.09;271616;1267;24272;-89
2023/05/20 05:32:32;;;;;;;48.30;25.30;;;;;;;11.05;100.00;99911.65;272343;1267;23580;-89
2023/05/20 05:38:33;;;;;;;46.00;25.10;;;;;;;11.12;100.00;99913.46;272896;1267;22681;-89
2023/05/20 05:44:34;;;;;;;47.20;24.20;;;;;;;11.20;100.00;99916.62;273672;1270;22216;-89
2023/05/20 05:51:03;;;;;;;40.30;23.50;;;;;;;11.28;100.00;99918.14;273628;1267;22457;-88
2023/05/20 05:57:06;;;;;;;41.50;23.80;;;;;;;11.36;100.00;99916.69;273672;1267;22548;-89
2023/05/20 06:03:09;;;;;;;39.10;22.50;;;;;;;11.41;100.00;99915.53;274005;1266;22311;-88
2023/05/20 06:09:11;;;;;;;41.30;23.40;;;;;;;11.46;100.00;99911.36;273753;1267;22352;-89
2023/05/20 06:15:12;;;;;;;43.00;22.50;;;;;;;11.54;100.00;99908.00;273179;1267;23649;-89
2023/05/20 06:21:16;;;;;;;45.60;23.20;;;;;;;11.60;100.00;99904.59;273629;1268;22211;-88
2023/05/20 06:27:17;;;;;;;38.20;21.40;;;;;;;11.64;100.00;99906.20;273814;1266;22152;-91
2023/05/20 06:33:24;;;;;;;38.50;22.10;;;;;;;11.71;100.00;99904.54;272662;1267;22601;-88
2023/05/20 06:46:55;;;;;;;35.90;22.20;;;;;;;11.94;100.00;99906.60;274166;1266;22425;-89
2023/05/20 06:52:56;;;;;;;39.60;22.70;;;;;;;12.07;100.00;99910.61;271803;1267;22635;-89
2023/05/20 06:58:58;;;;;;;36.70;23.10;;;;;;;12.22;100.00;99906.27;270938;1251;25460;-88
2023/05/20 07:05:00;;;;;;;37.10;22.60;;;;;;;12.34;100.00;99893.88;271256;1266;22354;-91
2023/05/20 07:11:53;;;;;;;37.10;21.30;;;;;;;12.42;100.00;99881.21;273345;1266;23289;-90
2023/05/20 07:17:54;;;;;;;33.80;21.40;;;;;;;12.50;100.00;99870.00;273748;1267;22176;-90
2023/05/20 07:23:56;;;;;;;36.90;21.00;;;;;;;12.67;100.00;99869.04;273725;1267;22385;-90
2023/05/20 07:29:57;;;;;;;32.20;19.50;;;;;;;12.77;100.00;99870.44;273853;1267;22312;-89
2023/05/20 07:36:03;;;;;;;33.70;21.20;;;;;;;12.84;100.00;99869.77;273878;1267;22565;-90
2023/05/20 07:42:06;;;;;;;31.20;20.40;;;;;;;12.92;100.00;99870.44;272458;1266;22566;-90
2023/05/20 07:48:09;;;;;;;33.50;19.70;;;;;;;12.97;100.00;99864.88;272519;1267;22610;-89
2023/05/20 07:54:11;;;;;;;31.30;19.70;;;;;;;13.05;100.00;99862.35;271981;1267;23689;-88
2023/05/20 08:00:13;;;;;;;27.40;18.60;;;;;;;13.14;100.00;99859.58;271919;1266;23342;-89
2023/05/20 08:06:21;;;;;;;26.50;17.80;;;;;;;13.27;100.00;99856.39;271147;1266;22552;-89
2023/05/20 08:12:22;;;;;;;22.60;15.40;;;;;;;13.44;100.00;99849.88;270690;1266;25293;-89
2023/05/20 08:18:26;;;;;;;23.70;16.10;;;;;;;13.68;100.00;99843.73;271191;1266;22322;-90
2023/05/20 08:24:28;;;;;;;25.10;17.00;;;;;;;13.93;100.00;99840.64;272389;1266;22472;-91
2023/05/20 08:30:30;;;;;;;27.00;16.60;;;;;;;14.04;100.00;99840.76;271522;1266;22872;-89
2023/05/20 08:36:32;;;;;;;24.80;14.90;;;;;;;14.10;100.00;99841.38;271108;1266;22624;-90
2023/05/20 08:42:34;;;;;;;19.90;13.90;;;;;;;14.12;100.00;99841.94;271595;1266;22533;-92
2023/05/20 08:49:02;;;;;;;23.60;16.50;;;;;;;14.17;100.00;99843.80;271285;1266;22305;-89
2023/05/20 08:55:56;;;;;;;30.20;18.60;;;;;;;14.24;100.00;99841.77;272739;1267;22550;-89
2023/05/20 09:02:01;;;;;;;33.00;20.40;;;;;;;14.34;100.00;99835.02;273004;1267;23217;-90
2023/05/20 09:08:07;;;;;;;30.30;19.70;;;;;;;14.49;100.00;99829.40;273637;1266;22246;-92
2023/05/20 09:14:08;;;;;;;27.20;18.00;;;;;;;14.64;100.00;99827.10;271613;1266;22540;-91
2023/05/20 09:20:10;;;;;;;30.50;18.70;;;;;;;14.72;100.00;99835.11;272697;1266;22891;-90
2023/05/20 09:27:06;;;;;;;30.00;20.00;;;;;;;14.73;100.00;99837.64;271712;1267;23251;-88
2023/05/20 09:33:11;;;;;;;32.50;20.30;;;;;;;14.77;100.00;99831.77;271037;1265;22658;-89
2023/05/20 09:39:24;;;;;;;31.30;21.20;;;;;;;14.83;100.00;99825.35;272038;1266;23429;-89
2023/05/20 09:45:29;;;;;;;35.30;22.10;;;;;;;14.90;100.00;99815.40;271250;1266;22548;-88
2023/05/20 09:51:31;;;;;;;37.00;21.70;;;;;;;15.02;100.00;99813.35;272592;1266;22539;-90
2023/05/20 09:57:34;;;;;;;38.80;23.50;;;;;;;15.18;100.00;99819.36;272868;1266;173769;-90
2023/05/20 10:03:36;;;;;;;42.10;24.50;;;;;;;15.31;100.00;99823.22;274091;1254;22884;-90
2023/05/20 10:09:48;;;;;;;40.90;24.50;;;;;;;15.38;100.00;99827.05;271250;1266;22530;-90
2023/05/20 10:15:59;;;;;;;41.30;26.70;;;;;;;15.47;100.00;99825.21;273286;1266;22616;-90
2023/05/20 10:29:48;;;;;;;42.40;27.10;;;;;;;15.67;100.00;99825.52;271460;1265;22520;-89
2023/05/20 10:35:51;;;;;;;39.90;25.80;;;;;;;15.97;100.00;99816.70;271481;1266;26365;-90
2023/05/20 10:42:30;;;;;;;40.70;26.60;;;;;;;16.39;100.00;99809.20;273126;1266;22564;-88
2023/05/20 10:48:32;;;;;;;34.60;24.80;;;;;;;16.97;100.00;99800.02;273344;1266;23577;-89
2023/05/20 10:55:27;;;;;;;34.70;23.30;;;;;;;17.48;100.00;99792.08;273233;1266;22575;-89
2023/05/20 11:01:33;;;;;;;35.40;24.50;;;;;;;17.83;100.00;99786.63;271046;1266;22650;-88
2023/05/20 11:07:35;;;;;;;36.20;25.00;;;;;;;18.00;100.00;99783.11;273041;1266;22983;-91
2023/05/20 11:13:37;;;;;;;31.20;22.50;;;;;;;18.09;100.00;99774.11;273744;1266;22359;-89
2023/05/20 11:19:40;;;;;;;32.20;24.40;;;;;;;18.24;100.00;99764.11;273816;1266;22403;-90
2023/05/20 11:26:13;;;;;;;25.80;20.80;;;;;;;18.73;100.00;99748.27;273871;1266;25336;-90
2023/05/20 11:32:19;;;;;;;30.60;22.10;;;;;;;19.28;100.00;99736.17;273022;1269;22558;-88
2023/05/20 11:38:24;;;;;;;;;;;;;;;19.77;100.00;99734.33;272320;1260;22478;-86
2023/05/20 11:44:26;;;;;;;29.30;22.30;;;;;;;20.25;100.00;99736.73;273059;1266;22306;-87
2023/05/20 12:06:23;;;;;;;27.20;20.50;;;;;;;20.87;99.59;99714.58;273944;1265;23512;-87
2023/05/20 12:12:25;;;;;;;25.80;20.90;;;;;;;20.97;98.07;99710.91;271992;1266;23326;-89
2023/05/20 12:19:17;;;;;;;26.00;22.00;;;;;;;20.93;97.53;99708.10;272610;1266;22255;-88
2023/05/20 12:25:20;;;;;;;26.50;21.40;;;;;;;20.95;96.67;99695.59;273933;1266;22427;-87
2023/05/20 12:32:11;;;;;;;26.20;19.40;;;;;;;20.96;95.25;99687.46;273911;1272;22163;-88
2023/05/20 12:38:14;;;;;;;27.10;21.10;;;;;;;20.77;92.88;99686.54;273880;1267;22471;-88
2023/05/20 12:44:15;;;;;;;25.50;20.10;;;;;;;20.75;92.50;99682.45;273749;1266;23181;-87
2023/05/20 12:50:17;;;;;;;25.70;22.20;;;;;;;20.83;91.61;99674.10;273729;1266;22313;-88
2023/05/20 12:56:20;;;;;;;29.70;22.40;;;;;;;20.89;90.57;99661.04;273698;1266;22077;-87
2023/05/20 13:02:21;;;;;;;24.50;21.90;;;;;;;21.10;90.69;99651.95;273762;1266;22364;-88
2023/05/20 13:08:25;;;;;;;21.70;18.00;;;;;;;21.28;89.84;99641.46;273796;1266;22884;-87
2023/05/20 13:14:27;;;;;;;21.80;18.60;;;;;;;21.34;88.19;99632.02;272984;1266;23655;-88
2023/05/20 13:20:29;;;;;;;22.30;19.10;;;;;;;21.41;86.61;99626.20;272172;1266;22341;-87
2023/05/20 13:27:21;;;;;;;24.00;19.00;;;;;;;21.42;86.06;99621.02;272443;1257;22513;-86
2023/05/20 13:33:23;;;;;;;24.00;17.80;;;;;;;21.48;85.29;99616.97;271727;1266;22360;-89
2023/05/20 13:39:25;;;;;;;19.20;16.10;;;;;;;21.47;83.66;99606.81;273757;1266;22294;-87
2023/05/20 13:45:28;;;;;;;20.50;16.20;;;;;;;21.44;82.11;99603.94;273716;1266;22375;-88
2023/05/20 13:51:55;;;;;;;19.20;16.60;;;;;;;21.52;82.49;99594.04;273645;1269;22338;-88
2023/05/20 13:57:56;;;;;;;19.80;15.70;;;;;;;21.63;81.78;99588.60;273890;1269;22329;-88
2023/05/20 14:03:58;;;;;;;20.50;16.00;;;;;;;21.81;81.54;99588.51;273819;1266;22331;-87
2023/05/20 14:10:25;;;;;;;17.30;13.90;;;;;;;21.95;80.82;99578.37;273821;1270;22368;-87
2023/05/20 14:16:26;;;;;;;18.20;14.80;;;;;;;21.97;79.89;99568.20;273457;1265;22284;-88
2023/05/20 14:22:30;;;;;;;20.50;14.30;;;;;;;21.99;79.02;99560.11;273834;1267;22371;-89
2023/05/20 14:28:31;;;;;;;17.40;13.20;;;;;;;22.01;77.84;99556.89;273588;1267;22399;-86
2023/05/20 14:41:48;;;;;;;17.50;13.30;;;;;;;22.16;76.99;99561.73;273819;1266;22364;-88
2023/05/20 14:47:50;;;;;;;15.70;13.10;;;;;;;22.25;76.24;99564.10;272311;1266;23770;-87
2023/05/20 14:53:52;;;;;;;14.80;12.30;;;;;;;22.34;75.90;99572.30;272240;1269;22255;-87
2023/05/20 15:00:21;;;;;;;16.40;11.70;;;;;;;22.34;74.47;99571.35;272499;1269;22175;-87
2023/05/20 15:06:25;;;;;;;16.60;12.70;;;;;;;22.31;74.17;99571.35;273720;1269;22348;-85
2023/05/20 15:20:27;;;;;;;16.30;12.10;;;;;;;22.20;73.41;99556.43;274039;1267;22320;-87
2023/05/20 15:26:31;;;;;;;16.40;12.60;;;;;;;22.12;72.27;99552.04;273872;1267;22388;-88
2023/05/20 15:32:32;;;;;;;14.40;12.40;;;;;;;22.05;71.61;99545.92;272947;1266;22340;-91
2023/05/20 15:38:35;;;;;;;26.60;12.70;;;;;;;22.00;71.41;99537.47;273286;1266;23290;-88
2023/05/20 15:44:36;;;;;;;14.50;12.60;;;;;;;21.96;71.28;99526.10;273609;1266;22197;-87
2023/05/20 15:50:38;;;;;;;16.00;12.40;;;;;;;21.94;71.03;99517.23;273755;1267;22347;-87
2023/05/20 15:56:40;;;;;;;15.00;11.50;;;;;;;21.93;71.50;99515.18;273796;1271;22122;-87
2023/05/20 16:02:42;;;;;;;14.90;11.80;;;;;;;21.95;71.67;99516.41;273773;1267;23560;-85
2023/05/20 16:08:44;;;;;;;14.70;12.80;;;;;;;22.00;71.24;99513.27;273781;1266;22285;-87
2023/05/20 16:15:11;;;;;;;19.20;10.70;;;;;;;22.08;70.93;99504.60;273613;1272;22694;-87
2023/05/20 16:21:12;;;;;;;16.70;10.60;;;;;;;22.11;70.38;99497.74;273006;1266;23540;-88
2023/05/20 16:27:14;;;;;;;15.30;11.00;;;;;;;22.09;70.75;99495.80;273838;1272;22266;-86
2023/05/20 16:33:16;;;;;;;13.00;9.90;;;;;;;22.04;71.16;99496.25;273827;1266;22331;-88
2023/05/20 16:39:18;;;;;;;11.30;9.20;;;;;;;22.00;70.77;99496.20;273825;1266;22379;-88
2023/05/20 16:45:30;;;;;;;15.20;9.90;;;;;;;21.97;70.28;99493.17;273820;1266;22245;-87
2023/05/20 16:59:33;;;;;;;18.20;8.80;;;;;;;21.74;70.06;99495.29;273943;1268;22235;-88
2023/05/20 17:05:35;;;;;;;12.70;9.10;;;;;;;21.58;69.32;99491.37;273682;1259;23621;-87
2023/05/20 17:11:37;;;;;;;11.60;8.10;;;;;;;21.49;69.24;99496.78;273626;1262;22326;-86
2023/05/20 17:17:38;;;;;;;9.90;8.50;;;;;;;21.38;69.28;99498.08;273633;1266;23337;-88
2023/05/20 17:23:40;;;;;;;12.60;9.20;;;;;;;21.22;69.62;99501.44;273722;1265;22343;-86
2023/05/20 17:29:48;;;;;;;14.70;9.30;;;;;;;21.01;69.57;99503.81;273590;1267;22191;-88
2023/05/20 17:36:40;;;;;;;13.30;8.80;;;;;;;20.83;69.71;99500.49;273899;1266;22193;-88
2023/05/20 17:43:33;;;;;;;12.30;8.40;;;;;;;20.66;69.72;99493.70;273780;1266;22575;-88
2023/05/20 17:49:34;;;;;;;12.00;9.30;;;;;;;20.51;69.93;99493.64;273696;1265;22328;-88
2023/05/20 17:55:38;;;;;;;11.90;10.30;;;;;;;20.39;70.13;99501.52;265666;1266;10001750;-87
2023/05/20 18:01:45;;;;;;;14.40;9.70;;;;;;;20.23;70.45;99501.48;273627;1266;22555;-87
2023/05/20 18:07:46;;;;;;;16.80;11.80;;;;;;;20.06;71.02;99502.92;273298;1267;22552;-88
2023/05/20 18:13:48;;;;;;;13.40;10.80;;;;;;;19.85;71.61;99503.80;272687;1266;22623;-86
2023/05/20 18:19:49;;;;;;;14.10;10.10;;;;;;;19.63;72.18;99506.73;273392;1266;23442;-88
2023/05/20 18:25:53;;;;;;;16.40;12.70;;;;;;;19.42;72.90;99501.21;273697;1266;22314;-87
2023/05/20 18:31:55;;;;;;;19.50;14.80;;;;;;;19.23;73.61;99508.56;273680;1266;22197;-88
2023/05/20 18:37:56;;;;;;;16.60;9.70;;;;;;;19.02;74.05;99518.39;273566;1266;22473;-88
2023/05/20 18:44:36;;;;;;;11.70;8.40;;;;;;;18.86;73.96;99525.44;273609;1266;22179;-87
2023/05/20 18:57:59;;;;;;;11.30;9.30;;;;;;;18.57;74.43;99534.05;273612;1266;22194;-88
2023/05/20 19:04:02;;;;;;;10.40;8.50;;;;;;;18.47;74.62;99532.91;273402;1261;22327;-88
2023/05/20 19:10:04;;;;;;;18.20;13.50;;;;;;;18.33;75.03;99534.15;273689;1267;22370;-87
2023/05/20 19:16:06;;;;;;;15.80;10.00;;;;;;;18.20;75.52;99537.94;273603;1267;22657;-89
2023/05/20 19:22:09;;;;;;;13.30;9.40;;;;;;;18.08;76.06;99540.69;273114;1266;22169;-90
2023/05/20 19:28:11;;;;;;;13.00;10.00;;;;;;;17.93;76.50;99543.60;272710;1265;22445;-88
2023/05/20 19:34:21;;;;;;;15.40;10.20;;;;;;;17.77;77.28;99554.91;273205;1266;22563;-89
2023/05/20 19:40:34;;;;;;;15.60;10.80;;;;;;;17.60;78.05;99562.10;272236;1266;22433;-88
2023/05/20 19:46:35;;;;;;;15.30;11.70;;;;;;;17.39;78.59;99557.41;273880;1267;22814;-90
2023/05/20 19:52:37;;;;;;;17.70;12.20;;;;;;;17.20;79.23;99555.09;273835;1266;22335;-89
2023/05/20 19:58:41;;;;;;;16.80;11.50;;;;;;;17.11;80.06;99550.25;273671;1269;22351;-89
2023/05/20 20:04:44;;;;;;;16.00;11.90;;;;;;;17.03;80.58;99556.70;273624;1267;22340;-88
2023/05/20 20:10:45;;;;;;;15.90;12.50;;;;;;;16.97;81.43;99559.35;273858;1266;22220;-90
2023/05/20 20:16:47;;;;;;;16.30;12.40;;;;;;;16.91;81.81;99565.05;273774;1266;22218;-88
2023/05/20 20:23:15;;;;;;;17.40;12.20;;;;;;;16.86;82.59;99565.80;272480;1266;22372;-89
2023/05/20 20:29:41;;;;;;;17.70;13.10;;;;;;;16.81;83.24;99569.30;273453;1269;22193;-88
2023/05/20 20:35:42;;;;;;;18.40;12.80;;;;;;;16.70;83.86;99573.07;271980;1251;22316;-88
2023/05/20 20:41:51;;;;;;;20.00;13.30;;;;;;;16.53;84.20;99577.70;273191;1267;22202;-89
2023/05/20 20:47:58;;;;;;;17.00;14.00;;;;;;;16.30;84.85;99577.67;272682;1266;22340;-88
2023/05/20 21:02:12;;;;;;;22.40;14.40;;;;;;;15.94;86.75;99579.80;272179;1273;22738;-88
2023/05/20 21:08:14;;;;;;;21.00;14.70;;;;;;;15.74;87.43;99576.74;274079;1269;22187;-87
2023/05/20 21:14:18;;;;;;;19.30;14.10;;;;;;;15.59;88.35;99577.92;273957;1269;22245;-88
2023/05/20 21:20:49;;;;;;;21.60;15.80;;;;;;;15.50;89.11;99581.70;274042;1270;22297;-88
2023/05/20 21:26:50;;;;;;;24.10;18.20;;;;;;;15.38;89.72;99583.09;273301;1270;22301;-87
2023/05/20 21:40:56;;;;;;;23.10;18.00;;;;;;;15.01;90.80;99581.52;271588;1268;22547;-88
2023/05/20 21:46:57;;;;;;;20.80;17.80;;;;;;;14.84;91.82;99578.40;271908;1267;22534;-87
2023/05/20 21:53:53;;;;;;;21.50;18.40;;;;;;;14.75;92.37;99576.01;271050;1268;22538;-87
2023/05/20 22:00:19;;;;;;;29.30;19.00;;;;;;;14.69;93.01;99568.27;270459;1267;22546;-88
2023/05/20 22:06:45;;;;;;;24.50;19.30;;;;;;;14.64;93.54;99566.59;270293;1267;22202;-87
2023/05/20 22:21:00;;;;;;;24.70;18.50;;;;;;;14.52;94.52;99566.55;271558;1270;23627;-88
2023/05/20 22:27:27;;;;;;;22.70;18.70;;;;;;;14.46;94.78;99562.19;274092;1267;22203;-89
2023/05/20 22:33:53;;;;;;;26.30;18.60;;;;;;;14.41;95.22;99561.06;271995;1268;24478;-88
2023/05/20 22:39:55;;;;;;;21.50;16.40;;;;;;;14.27;95.24;99565.78;270267;1270;22566;-89
2023/05/20 22:46:46;;;;;;;21.20;16.00;;;;;;;14.14;96.40;99560.19;271475;1270;22305;-88
2023/05/20 22:52:47;;;;;;;20.00;16.40;;;;;;;14.06;97.01;99551.23;272937;1266;22501;-88
2023/05/20 22:58:48;;;;;;;19.10;15.70;;;;;;;13.92;97.44;99545.73;270576;1266;22683;-88
2023/05/20 23:04:49;;;;;;;27.00;18.50;;;;;;;13.82;98.40;99542.99;271306;1267;23494;-88
2023/05/20 23:18:34;;;;;;;28.10;18.30;;;;;;;13.61;99.53;99532.61;272289;1261;24153;-88
2023/05/20 23:24:35;;;;;;;23.90;17.30;;;;;;;13.42;99.08;99532.48;273737;1263;22478;-89
2023/05/20 23:30:37;;;;;;;23.40;18.60;;;;;;;13.31;99.97;99527.27;274160;1267;22821;-88
2023/05/20 23:37:03;;;;;;;25.60;21.30;;;;;;;13.22;100.00;99522.95;273953;1270;22974;-88
2023/05/20 23:43:29;;;;;;;29.30;22.60;;;;;;;13.18;100.00;99518.59;272351;1267;23281;-87
2023/05/20 23:49:30;;;;;;;27.30;21.60;;;;;;;13.18;100.00;99521.73;270993;1270;22631;-88
2023/05/20 23:55:32;;;;;;;29.90;21.40;;;;;;;13.20;100.00;99522.14;270725;1267;23176;-89
